sensor_id;sensor_type;location;lat;lon;timestamp;P1;durP1;ratioP1;P2;durP2;ratioP2
16286;SDS011;8251;53.568;10.018;2023-12-20T00:00:09;11.53;;;1.47;;
16286;SDS011;8251;53.568;10.018;2023-12-20T00:02:36;6.73;;;1.37;;
16286;SDS011;8251;53.568;10.018;2023-12-20T00:05:04;7.17;;;1.70;;
16286;SDS011;8251;53.568;10.018;2023-12-20T00:07:31;8.60;;;1.30;;
16286;SDS011;8251;53.568;10.018;2023-12-20T00:09:59;7.97;;;1.53;;
16286;SDS011;8251;53.568;10.018;2023-12-20T00:12:26;6.60;;;1.33;;
16286;SDS011;8251;53.568;10.018;2023-12-20T00:14:53;7.97;;;1.30;;
16286;SDS011;8251;53.568;10.018;2023-12-20T00:17:20;12.10;;;1.53;;
16286;SDS011;8251;53.568;10.018;2023-12-20T00:19:47;11.50;;;1.60;;
16286;SDS011;8251;53.568;10.018;2023-12-20T00:22:14;11.97;;;1.07;;
16286;SDS011;8251;53.568;10.018;2023-12-20T00:24:41;14.07;;;2.00;;
16286;SDS011;8251;53.568;10.018;2023-12-20T00:27:10;9.90;;;1.40;;
16286;SDS011;8251;53.568;10.018;2023-12-20T00:29:37;6.37;;;1.33;;
16286;SDS011;8251;53.568;10.018;2023-12-20T00:32:08;7.63;;;1.10;;
16286;SDS011;8251;53.568;10.018;2023-12-20T00:34:34;11.73;;;1.40;;
16286;SDS011;8251;53.568;10.018;2023-12-20T00:37:01;7.17;;;1.97;;
16286;SDS011;8251;53.568;10.018;2023-12-20T00:39:29;13.50;;;2.03;;
16286;SDS011;8251;53.568;10.018;2023-12-20T00:41:56;5.20;;;1.00;;
16286;SDS011;8251;53.568;10.018;2023-12-20T00:44:25;8.63;;;1.90;;
16286;SDS011;8251;53.568;10.018;2023-12-20T00:46:52;11.80;;;1.97;;
16286;SDS011;8251;53.568;10.018;2023-12-20T00:49:19;16.07;;;2.43;;
16286;SDS011;8251;53.568;10.018;2023-12-20T00:51:46;6.17;;;1.10;;
16286;SDS011;8251;53.568;10.018;2023-12-20T00:54:15;10.37;;;1.30;;
16286;SDS011;8251;53.568;10.018;2023-12-20T00:56:42;12.20;;;1.73;;
16286;SDS011;8251;53.568;10.018;2023-12-20T00:59:09;8.33;;;1.43;;
16286;SDS011;8251;53.568;10.018;2023-12-20T01:01:37;7.77;;;1.40;;
16286;SDS011;8251;53.568;10.018;2023-12-20T01:04:04;4.33;;;1.30;;
16286;SDS011;8251;53.568;10.018;2023-12-20T01:06:31;11.13;;;1.40;;
16286;SDS011;8251;53.568;10.018;2023-12-20T01:08:58;3.77;;;0.90;;
16286;SDS011;8251;53.568;10.018;2023-12-20T01:11:25;7.63;;;2.07;;
16286;SDS011;8251;53.568;10.018;2023-12-20T01:13:52;7.87;;;1.40;;
16286;SDS011;8251;53.568;10.018;2023-12-20T01:16:20;9.73;;;1.57;;
16286;SDS011;8251;53.568;10.018;2023-12-20T01:18:48;7.73;;;1.50;;
16286;SDS011;8251;53.568;10.018;2023-12-20T01:21:15;9.13;;;2.30;;
16286;SDS011;8251;53.568;10.018;2023-12-20T01:23:42;7.07;;;1.60;;
16286;SDS011;8251;53.568;10.018;2023-12-20T01:26:09;9.10;;;1.63;;
16286;SDS011;8251;53.568;10.018;2023-12-20T01:28:37;15.30;;;1.57;;
16286;SDS011;8251;53.568;10.018;2023-12-20T01:31:04;11.70;;;2.43;;
16286;SDS011;8251;53.568;10.018;2023-12-20T01:33:31;10.43;;;1.50;;
16286;SDS011;8251;53.568;10.018;2023-12-20T01:36:04;14.23;;;2.57;;
16286;SDS011;8251;53.568;10.018;2023-12-20T01:38:31;9.13;;;1.50;;
16286;SDS011;8251;53.568;10.018;2023-12-20T01:40:58;14.33;;;1.60;;
16286;SDS011;8251;53.568;10.018;2023-12-20T01:43:29;6.63;;;1.40;;
16286;SDS011;8251;53.568;10.018;2023-12-20T01:45:56;11.50;;;1.40;;
16286;SDS011;8251;53.568;10.018;2023-12-20T01:48:24;11.30;;;1.60;;
16286;SDS011;8251;53.568;10.018;2023-12-20T01:50:51;8.77;;;1.27;;
16286;SDS011;8251;53.568;10.018;2023-12-20T01:53:20;12.10;;;1.40;;
16286;SDS011;8251;53.568;10.018;2023-12-20T01:55:52;9.57;;;1.30;;
16286;SDS011;8251;53.568;10.018;2023-12-20T01:58:22;4.73;;;0.83;;
16286;SDS011;8251;53.568;10.018;2023-12-20T02:00:50;9.53;;;1.23;;
16286;SDS011;8251;53.568;10.018;2023-12-20T02:03:19;10.90;;;1.33;;
16286;SDS011;8251;53.568;10.018;2023-12-20T02:05:52;10.70;;;2.37;;
16286;SDS011;8251;53.568;10.018;2023-12-20T02:08:21;11.40;;;1.80;;
16286;SDS011;8251;53.568;10.018;2023-12-20T02:10:48;14.00;;;1.60;;
16286;SDS011;8251;53.568;10.018;2023-12-20T02:13:16;10.97;;;1.87;;
16286;SDS011;8251;53.568;10.018;2023-12-20T02:15:43;9.00;;;1.60;;
16286;SDS011;8251;53.568;10.018;2023-12-20T02:18:10;13.50;;;1.80;;
16286;SDS011;8251;53.568;10.018;2023-12-20T02:20:52;3.47;;;1.30;;
16286;SDS011;8251;53.568;10.018;2023-12-20T02:23:22;11.57;;;1.93;;
16286;SDS011;8251;53.568;10.018;2023-12-20T02:25:49;10.27;;;1.30;;
16286;SDS011;8251;53.568;10.018;2023-12-20T02:28:16;9.30;;;1.37;;
16286;SDS011;8251;53.568;10.018;2023-12-20T02:30:43;9.37;;;1.87;;
16286;SDS011;8251;53.568;10.018;2023-12-20T02:33:10;9.40;;;1.03;;
16286;SDS011;8251;53.568;10.018;2023-12-20T02:35:40;6.33;;;1.87;;
16286;SDS011;8251;53.568;10.018;2023-12-20T02:38:07;12.47;;;1.60;;
16286;SDS011;8251;53.568;10.018;2023-12-20T02:40:38;14.37;;;1.30;;
16286;SDS011;8251;53.568;10.018;2023-12-20T02:43:05;7.03;;;1.50;;
16286;SDS011;8251;53.568;10.018;2023-12-20T02:45:32;13.77;;;1.47;;
16286;SDS011;8251;53.568;10.018;2023-12-20T02:47:59;8.53;;;1.50;;
16286;SDS011;8251;53.568;10.018;2023-12-20T02:50:26;6.60;;;1.20;;
16286;SDS011;8251;53.568;10.018;2023-12-20T02:52:53;8.67;;;1.33;;
16286;SDS011;8251;53.568;10.018;2023-12-20T02:55:20;8.40;;;1.30;;
16286;SDS011;8251;53.568;10.018;2023-12-20T02:57:48;7.60;;;1.40;;
16286;SDS011;8251;53.568;10.018;2023-12-20T03:00:15;10.33;;;1.63;;
16286;SDS011;8251;53.568;10.018;2023-12-20T03:02:43;7.77;;;1.67;;
16286;SDS011;8251;53.568;10.018;2023-12-20T03:05:12;10.60;;;1.80;;
16286;SDS011;8251;53.568;10.018;2023-12-20T03:07:40;11.33;;;1.90;;
16286;SDS011;8251;53.568;10.018;2023-12-20T03:10:07;7.50;;;1.57;;
16286;SDS011;8251;53.568;10.018;2023-12-20T03:12:35;10.20;;;1.67;;
16286;SDS011;8251;53.568;10.018;2023-12-20T03:15:06;11.13;;;1.63;;
16286;SDS011;8251;53.568;10.018;2023-12-20T03:17:34;11.03;;;1.40;;
16286;SDS011;8251;53.568;10.018;2023-12-20T03:20:01;7.90;;;0.83;;
16286;SDS011;8251;53.568;10.018;2023-12-20T03:22:29;15.73;;;2.00;;
16286;SDS011;8251;53.568;10.018;2023-12-20T03:24:55;9.83;;;1.30;;
16286;SDS011;8251;53.568;10.018;2023-12-20T03:27:22;5.10;;;1.40;;
16286;SDS011;8251;53.568;10.018;2023-12-20T03:29:52;10.40;;;1.50;;
16286;SDS011;8251;53.568;10.018;2023-12-20T03:32:20;9.53;;;1.40;;
16286;SDS011;8251;53.568;10.018;2023-12-20T03:34:47;9.00;;;1.63;;
16286;SDS011;8251;53.568;10.018;2023-12-20T03:37:14;9.70;;;1.17;;
16286;SDS011;8251;53.568;10.018;2023-12-20T03:39:41;6.07;;;1.40;;
16286;SDS011;8251;53.568;10.018;2023-12-20T03:42:09;11.30;;;1.63;;
16286;SDS011;8251;53.568;10.018;2023-12-20T03:44:38;9.00;;;2.17;;
16286;SDS011;8251;53.568;10.018;2023-12-20T03:47:05;10.60;;;1.30;;
16286;SDS011;8251;53.568;10.018;2023-12-20T03:49:34;10.13;;;1.30;;
16286;SDS011;8251;53.568;10.018;2023-12-20T03:52:04;10.27;;;1.73;;
16286;SDS011;8251;53.568;10.018;2023-12-20T03:54:31;9.97;;;1.30;;
16286;SDS011;8251;53.568;10.018;2023-12-20T03:57:01;6.37;;;1.40;;
16286;SDS011;8251;53.568;10.018;2023-12-20T03:59:28;8.80;;;1.73;;
16286;SDS011;8251;53.568;10.018;2023-12-20T04:01:59;15.27;;;1.43;;
16286;SDS011;8251;53.568;10.018;2023-12-20T04:04:26;9.40;;;1.47;;
16286;SDS011;8251;53.568;10.018;2023-12-20T04:06:57;10.60;;;1.60;;
16286;SDS011;8251;53.568;10.018;2023-12-20T04:09:24;10.87;;;1.43;;
16286;SDS011;8251;53.568;10.018;2023-12-20T04:11:51;13.13;;;1.53;;
16286;SDS011;8251;53.568;10.018;2023-12-20T04:14:18;7.90;;;1.80;;
16286;SDS011;8251;53.568;10.018;2023-12-20T04:16:45;6.77;;;1.37;;
16286;SDS011;8251;53.568;10.018;2023-12-20T04:19:13;5.23;;;1.20;;
16286;SDS011;8251;53.568;10.018;2023-12-20T04:21:40;8.13;;;1.67;;
16286;SDS011;8251;53.568;10.018;2023-12-20T04:24:09;8.40;;;1.77;;
16286;SDS011;8251;53.568;10.018;2023-12-20T04:26:36;6.87;;;1.20;;
16286;SDS011;8251;53.568;10.018;2023-12-20T04:29:03;6.70;;;1.50;;
16286;SDS011;8251;53.568;10.018;2023-12-20T04:31:30;8.80;;;1.63;;
16286;SDS011;8251;53.568;10.018;2023-12-20T04:33:57;6.47;;;1.30;;
16286;SDS011;8251;53.568;10.018;2023-12-20T04:36:24;8.13;;;1.70;;
16286;SDS011;8251;53.568;10.018;2023-12-20T04:38:52;7.57;;;1.63;;
16286;SDS011;8251;53.568;10.018;2023-12-20T04:41:21;10.23;;;1.40;;
16286;SDS011;8251;53.568;10.018;2023-12-20T04:43:49;10.97;;;1.30;;
16286;SDS011;8251;53.568;10.018;2023-12-20T04:46:16;6.13;;;1.50;;
16286;SDS011;8251;53.568;10.018;2023-12-20T04:48:43;6.33;;;3.00;;
16286;SDS011;8251;53.568;10.018;2023-12-20T04:51:10;12.33;;;1.70;;
16286;SDS011;8251;53.568;10.018;2023-12-20T04:53:37;3.90;;;1.63;;
16286;SDS011;8251;53.568;10.018;2023-12-20T04:56:05;11.20;;;1.40;;
16286;SDS011;8251;53.568;10.018;2023-12-20T04:58:36;6.33;;;1.53;;
16286;SDS011;8251;53.568;10.018;2023-12-20T05:01:03;12.00;;;1.50;;
16286;SDS011;8251;53.568;10.018;2023-12-20T05:03:32;9.43;;;1.40;;
16286;SDS011;8251;53.568;10.018;2023-12-20T05:06:01;14.40;;;1.77;;
16286;SDS011;8251;53.568;10.018;2023-12-20T05:08:28;10.20;;;1.57;;
16286;SDS011;8251;53.568;10.018;2023-12-20T05:10:56;7.60;;;1.87;;
16286;SDS011;8251;53.568;10.018;2023-12-20T05:13:23;10.67;;;1.47;;
16286;SDS011;8251;53.568;10.018;2023-12-20T05:15:51;8.07;;;2.00;;
16286;SDS011;8251;53.568;10.018;2023-12-20T05:18:19;9.90;;;1.90;;
16286;SDS011;8251;53.568;10.018;2023-12-20T05:20:48;10.47;;;1.37;;
16286;SDS011;8251;53.568;10.018;2023-12-20T05:23:15;8.83;;;1.50;;
16286;SDS011;8251;53.568;10.018;2023-12-20T05:25:43;6.50;;;1.27;;
16286;SDS011;8251;53.568;10.018;2023-12-20T05:28:10;12.20;;;1.60;;
16286;SDS011;8251;53.568;10.018;2023-12-20T05:30:37;7.80;;;2.00;;
16286;SDS011;8251;53.568;10.018;2023-12-20T05:33:06;10.17;;;1.57;;
16286;SDS011;8251;53.568;10.018;2023-12-20T05:35:33;4.03;;;1.33;;
16286;SDS011;8251;53.568;10.018;2023-12-20T05:37:59;8.20;;;3.20;;
16286;SDS011;8251;53.568;10.018;2023-12-20T05:40:31;9.50;;;1.57;;
16286;SDS011;8251;53.568;10.018;2023-12-20T05:42:58;7.73;;;2.07;;
16286;SDS011;8251;53.568;10.018;2023-12-20T05:45:38;7.87;;;2.03;;
16286;SDS011;8251;53.568;10.018;2023-12-20T05:48:07;6.17;;;1.90;;
16286;SDS011;8251;53.568;10.018;2023-12-20T05:50:34;15.57;;;1.90;;
16286;SDS011;8251;53.568;10.018;2023-12-20T05:53:02;8.20;;;2.03;;
16286;SDS011;8251;53.568;10.018;2023-12-20T05:55:30;11.07;;;2.33;;
16286;SDS011;8251;53.568;10.018;2023-12-20T05:57:57;10.13;;;1.17;;
16286;SDS011;8251;53.568;10.018;2023-12-20T06:00:24;7.37;;;1.40;;
16286;SDS011;8251;53.568;10.018;2023-12-20T06:02:51;12.20;;;2.13;;
16286;SDS011;8251;53.568;10.018;2023-12-20T06:05:20;7.47;;;1.60;;
16286;SDS011;8251;53.568;10.018;2023-12-20T06:07:47;9.00;;;2.10;;
16286;SDS011;8251;53.568;10.018;2023-12-20T06:10:16;9.27;;;2.20;;
16286;SDS011;8251;53.568;10.018;2023-12-20T06:12:43;12.73;;;3.57;;
16286;SDS011;8251;53.568;10.018;2023-12-20T06:15:12;6.10;;;2.10;;
16286;SDS011;8251;53.568;10.018;2023-12-20T06:17:39;14.97;;;2.60;;
16286;SDS011;8251;53.568;10.018;2023-12-20T06:20:07;11.53;;;1.37;;
16286;SDS011;8251;53.568;10.018;2023-12-20T06:22:36;8.00;;;1.57;;
16286;SDS011;8251;53.568;10.018;2023-12-20T06:25:04;6.57;;;1.80;;
16286;SDS011;8251;53.568;10.018;2023-12-20T06:27:32;11.00;;;2.07;;
16286;SDS011;8251;53.568;10.018;2023-12-20T06:29:59;6.63;;;1.30;;
16286;SDS011;8251;53.568;10.018;2023-12-20T06:32:26;9.93;;;2.23;;
16286;SDS011;8251;53.568;10.018;2023-12-20T06:34:54;11.03;;;2.30;;
16286;SDS011;8251;53.568;10.018;2023-12-20T06:37:22;10.30;;;1.90;;
16286;SDS011;8251;53.568;10.018;2023-12-20T06:40:00;12.67;;;1.40;;
16286;SDS011;8251;53.568;10.018;2023-12-20T06:42:27;11.27;;;2.40;;
16286;SDS011;8251;53.568;10.018;2023-12-20T06:44:55;4.27;;;1.50;;
16286;SDS011;8251;53.568;10.018;2023-12-20T06:47:23;18.73;;;2.93;;
16286;SDS011;8251;53.568;10.018;2023-12-20T06:49:50;13.03;;;3.17;;
16286;SDS011;8251;53.568;10.018;2023-12-20T06:52:18;7.40;;;2.00;;
16286;SDS011;8251;53.568;10.018;2023-12-20T06:54:48;6.83;;;1.70;;
16286;SDS011;8251;53.568;10.018;2023-12-20T06:57:25;13.13;;;2.20;;
16286;SDS011;8251;53.568;10.018;2023-12-20T06:59:53;11.27;;;2.73;;
16286;SDS011;8251;53.568;10.018;2023-12-20T07:02:23;11.37;;;2.00;;
16286;SDS011;8251;53.568;10.018;2023-12-20T07:04:50;9.23;;;1.63;;
16286;SDS011;8251;53.568;10.018;2023-12-20T07:07:17;10.97;;;1.77;;
16286;SDS011;8251;53.568;10.018;2023-12-20T07:09:48;7.83;;;1.63;;
16286;SDS011;8251;53.568;10.018;2023-12-20T07:12:15;6.97;;;2.07;;
16286;SDS011;8251;53.568;10.018;2023-12-20T07:14:50;6.40;;;1.20;;
16286;SDS011;8251;53.568;10.018;2023-12-20T07:17:17;12.40;;;1.43;;
16286;SDS011;8251;53.568;10.018;2023-12-20T07:19:44;5.73;;;1.97;;
16286;SDS011;8251;53.568;10.018;2023-12-20T07:22:11;11.60;;;1.63;;
16286;SDS011;8251;53.568;10.018;2023-12-20T07:24:38;12.93;;;1.87;;
16286;SDS011;8251;53.568;10.018;2023-12-20T07:27:05;8.33;;;1.87;;
16286;SDS011;8251;53.568;10.018;2023-12-20T07:29:32;19.97;;;2.07;;
16286;SDS011;8251;53.568;10.018;2023-12-20T07:32:01;12.13;;;2.23;;
16286;SDS011;8251;53.568;10.018;2023-12-20T07:34:28;9.87;;;1.97;;
16286;SDS011;8251;53.568;10.018;2023-12-20T07:36:55;11.43;;;2.77;;
16286;SDS011;8251;53.568;10.018;2023-12-20T07:39:22;16.13;;;2.70;;
16286;SDS011;8251;53.568;10.018;2023-12-20T07:41:49;10.87;;;2.13;;
16286;SDS011;8251;53.568;10.018;2023-12-20T07:44:16;15.03;;;2.90;;
16286;SDS011;8251;53.568;10.018;2023-12-20T07:46:43;17.43;;;2.33;;
16286;SDS011;8251;53.568;10.018;2023-12-20T07:49:15;12.43;;;3.17;;
16286;SDS011;8251;53.568;10.018;2023-12-20T07:51:44;20.27;;;2.97;;
16286;SDS011;8251;53.568;10.018;2023-12-20T07:54:11;11.80;;;2.20;;
16286;SDS011;8251;53.568;10.018;2023-12-20T07:56:38;8.73;;;1.90;;
16286;SDS011;8251;53.568;10.018;2023-12-20T07:59:05;9.37;;;2.33;;
16286;SDS011;8251;53.568;10.018;2023-12-20T08:01:32;11.47;;;2.00;;
16286;SDS011;8251;53.568;10.018;2023-12-20T08:03:59;17.20;;;2.10;;
16286;SDS011;8251;53.568;10.018;2023-12-20T08:06:27;10.27;;;2.77;;
16286;SDS011;8251;53.568;10.018;2023-12-20T08:08:54;10.87;;;1.70;;
16286;SDS011;8251;53.568;10.018;2023-12-20T08:11:21;11.43;;;2.10;;
16286;SDS011;8251;53.568;10.018;2023-12-20T08:14:00;14.87;;;2.73;;
16286;SDS011;8251;53.568;10.018;2023-12-20T08:16:27;17.60;;;2.33;;
16286;SDS011;8251;53.568;10.018;2023-12-20T08:18:54;13.43;;;2.73;;
16286;SDS011;8251;53.568;10.018;2023-12-20T08:21:20;10.83;;;2.03;;
16286;SDS011;8251;53.568;10.018;2023-12-20T08:23:49;9.93;;;2.33;;
16286;SDS011;8251;53.568;10.018;2023-12-20T08:26:18;9.17;;;1.60;;
16286;SDS011;8251;53.568;10.018;2023-12-20T08:28:46;16.77;;;3.03;;
16286;SDS011;8251;53.568;10.018;2023-12-20T08:31:14;12.70;;;2.10;;
16286;SDS011;8251;53.568;10.018;2023-12-20T08:33:44;13.20;;;1.90;;
16286;SDS011;8251;53.568;10.018;2023-12-20T08:36:12;18.23;;;2.20;;
16286;SDS011;8251;53.568;10.018;2023-12-20T08:38:39;11.63;;;2.00;;
16286;SDS011;8251;53.568;10.018;2023-12-20T08:41:07;13.53;;;2.30;;
16286;SDS011;8251;53.568;10.018;2023-12-20T08:43:34;10.40;;;3.17;;
16286;SDS011;8251;53.568;10.018;2023-12-20T08:46:01;13.80;;;2.70;;
16286;SDS011;8251;53.568;10.018;2023-12-20T08:48:28;9.23;;;2.03;;
16286;SDS011;8251;53.568;10.018;2023-12-20T08:50:55;10.60;;;1.80;;
16286;SDS011;8251;53.568;10.018;2023-12-20T08:53:22;12.70;;;2.53;;
16286;SDS011;8251;53.568;10.018;2023-12-20T08:55:53;14.67;;;2.33;;
16286;SDS011;8251;53.568;10.018;2023-12-20T08:58:25;12.70;;;2.20;;
16286;SDS011;8251;53.568;10.018;2023-12-20T09:00:52;10.33;;;1.93;;
16286;SDS011;8251;53.568;10.018;2023-12-20T09:03:22;10.33;;;2.27;;
16286;SDS011;8251;53.568;10.018;2023-12-20T09:05:49;13.97;;;3.10;;
16286;SDS011;8251;53.568;10.018;2023-12-20T09:08:16;9.50;;;2.17;;
16286;SDS011;8251;53.568;10.018;2023-12-20T09:10:43;9.80;;;2.30;;
16286;SDS011;8251;53.568;10.018;2023-12-20T09:13:10;5.77;;;1.57;;
16286;SDS011;8251;53.568;10.018;2023-12-20T09:15:39;7.93;;;1.27;;
16286;SDS011;8251;53.568;10.018;2023-12-20T09:18:05;13.13;;;1.63;;
16286;SDS011;8251;53.568;10.018;2023-12-20T09:20:33;8.20;;;2.03;;
16286;SDS011;8251;53.568;10.018;2023-12-20T09:23:00;20.60;;;3.53;;
16286;SDS011;8251;53.568;10.018;2023-12-20T09:25:27;4.83;;;1.50;;
16286;SDS011;8251;53.568;10.018;2023-12-20T09:27:55;3.57;;;1.20;;
16286;SDS011;8251;53.568;10.018;2023-12-20T09:30:22;6.83;;;1.43;;
16286;SDS011;8251;53.568;10.018;2023-12-20T09:32:51;4.57;;;1.20;;
16286;SDS011;8251;53.568;10.018;2023-12-20T09:35:18;2.90;;;0.90;;
16286;SDS011;8251;53.568;10.018;2023-12-20T09:37:45;2.23;;;0.70;;
16286;SDS011;8251;53.568;10.018;2023-12-20T09:40:18;2.80;;;0.90;;
16286;SDS011;8251;53.568;10.018;2023-12-20T09:42:47;4.30;;;1.10;;
16286;SDS011;8251;53.568;10.018;2023-12-20T09:45:17;2.90;;;0.63;;
16286;SDS011;8251;53.568;10.018;2023-12-20T09:47:52;4.47;;;1.13;;
16286;SDS011;8251;53.568;10.018;2023-12-20T09:50:20;1.70;;;0.73;;
16286;SDS011;8251;53.568;10.018;2023-12-20T09:52:49;2.57;;;0.47;;
16286;SDS011;8251;53.568;10.018;2023-12-20T09:55:17;4.43;;;1.00;;
16286;SDS011;8251;53.568;10.018;2023-12-20T09:57:45;6.73;;;0.73;;
16286;SDS011;8251;53.568;10.018;2023-12-20T10:00:13;10.47;;;0.93;;
16286;SDS011;8251;53.568;10.018;2023-12-20T10:02:42;5.13;;;0.50;;
16286;SDS011;8251;53.568;10.018;2023-12-20T10:05:17;2.73;;;0.73;;
16286;SDS011;8251;53.568;10.018;2023-12-20T10:07:46;2.90;;;0.30;;
16286;SDS011;8251;53.568;10.018;2023-12-20T10:10:13;0.60;;;0.20;;
16286;SDS011;8251;53.568;10.018;2023-12-20T10:12:40;2.60;;;0.57;;
16286;SDS011;8251;53.568;10.018;2023-12-20T10:15:27;1.50;;;0.40;;
16286;SDS011;8251;53.568;10.018;2023-12-20T10:17:54;1.13;;;0.53;;
16286;SDS011;8251;53.568;10.018;2023-12-20T10:20:28;4.23;;;0.60;;
16286;SDS011;8251;53.568;10.018;2023-12-20T10:22:58;2.77;;;0.47;;
16286;SDS011;8251;53.568;10.018;2023-12-20T10:25:26;3.60;;;0.63;;
16286;SDS011;8251;53.568;10.018;2023-12-20T10:28:08;0.97;;;0.47;;
16286;SDS011;8251;53.568;10.018;2023-12-20T10:30:35;1.43;;;0.30;;
16286;SDS011;8251;53.568;10.018;2023-12-20T10:33:03;1.60;;;0.50;;
16286;SDS011;8251;53.568;10.018;2023-12-20T10:35:32;8.23;;;1.13;;
16286;SDS011;8251;53.568;10.018;2023-12-20T10:38:03;5.83;;;0.90;;
16286;SDS011;8251;53.568;10.018;2023-12-20T10:40:31;1.63;;;0.40;;
16286;SDS011;8251;53.568;10.018;2023-12-20T10:43:02;2.93;;;0.67;;
16286;SDS011;8251;53.568;10.018;2023-12-20T10:45:30;1.10;;;0.50;;
16286;SDS011;8251;53.568;10.018;2023-12-20T10:47:57;1.73;;;0.70;;
16286;SDS011;8251;53.568;10.018;2023-12-20T10:50:26;4.37;;;0.70;;
16286;SDS011;8251;53.568;10.018;2023-12-20T10:52:56;4.83;;;0.60;;
16286;SDS011;8251;53.568;10.018;2023-12-20T10:55:24;5.30;;;1.00;;
16286;SDS011;8251;53.568;10.018;2023-12-20T10:57:51;5.83;;;1.00;;
16286;SDS011;8251;53.568;10.018;2023-12-20T11:00:21;6.83;;;1.43;;
16286;SDS011;8251;53.568;10.018;2023-12-20T11:02:51;3.57;;;0.80;;
16286;SDS011;8251;53.568;10.018;2023-12-20T11:05:24;3.57;;;2.03;;
16286;SDS011;8251;53.568;10.018;2023-12-20T11:10:47;2.33;;;0.53;;
16286;SDS011;8251;53.568;10.018;2023-12-20T11:13:26;5.77;;;1.23;;
16286;SDS011;8251;53.568;10.018;2023-12-20T11:15:57;4.90;;;0.70;;
16286;SDS011;8251;53.568;10.018;2023-12-20T11:18:28;6.03;;;1.00;;
16286;SDS011;8251;53.568;10.018;2023-12-20T11:21:02;4.03;;;0.77;;
16286;SDS011;8251;53.568;10.018;2023-12-20T11:23:33;5.40;;;1.13;;
16286;SDS011;8251;53.568;10.018;2023-12-20T11:26:00;3.33;;;1.20;;
16286;SDS011;8251;53.568;10.018;2023-12-20T11:28:28;5.50;;;0.87;;
16286;SDS011;8251;53.568;10.018;2023-12-20T11:30:56;6.27;;;1.20;;
16286;SDS011;8251;53.568;10.018;2023-12-20T11:33:25;6.47;;;1.37;;
16286;SDS011;8251;53.568;10.018;2023-12-20T11:35:55;15.30;;;1.17;;
16286;SDS011;8251;53.568;10.018;2023-12-20T11:38:23;10.37;;;1.03;;
16286;SDS011;8251;53.568;10.018;2023-12-20T11:40:53;4.47;;;1.70;;
16286;SDS011;8251;53.568;10.018;2023-12-20T11:43:30;7.37;;;1.70;;
16286;SDS011;8251;53.568;10.018;2023-12-20T11:46:02;6.10;;;1.13;;
16286;SDS011;8251;53.568;10.018;2023-12-20T11:48:31;4.27;;;1.10;;
16286;SDS011;8251;53.568;10.018;2023-12-20T11:50:58;6.50;;;1.20;;
16286;SDS011;8251;53.568;10.018;2023-12-20T11:53:25;3.00;;;1.07;;
16286;SDS011;8251;53.568;10.018;2023-12-20T11:55:54;6.93;;;1.30;;
16286;SDS011;8251;53.568;10.018;2023-12-20T11:58:21;6.53;;;0.90;;
16286;SDS011;8251;53.568;10.018;2023-12-20T12:00:49;8.40;;;1.23;;
16286;SDS011;8251;53.568;10.018;2023-12-20T12:03:16;7.00;;;1.80;;
16286;SDS011;8251;53.568;10.018;2023-12-20T12:05:46;3.50;;;1.00;;
16286;SDS011;8251;53.568;10.018;2023-12-20T12:08:16;4.20;;;1.00;;
16286;SDS011;8251;53.568;10.018;2023-12-20T12:10:44;4.77;;;1.80;;
16286;SDS011;8251;53.568;10.018;2023-12-20T12:13:12;6.37;;;1.90;;
16286;SDS011;8251;53.568;10.018;2023-12-20T12:15:40;8.43;;;1.47;;
16286;SDS011;8251;53.568;10.018;2023-12-20T12:18:09;6.70;;;1.40;;
16286;SDS011;8251;53.568;10.018;2023-12-20T12:20:36;7.97;;;1.40;;
16286;SDS011;8251;53.568;10.018;2023-12-20T12:23:04;7.40;;;1.63;;
16286;SDS011;8251;53.568;10.018;2023-12-20T12:25:32;8.67;;;1.77;;
16286;SDS011;8251;53.568;10.018;2023-12-20T12:28:01;12.07;;;1.20;;
16286;SDS011;8251;53.568;10.018;2023-12-20T12:30:30;10.20;;;2.13;;
16286;SDS011;8251;53.568;10.018;2023-12-20T12:32:57;11.33;;;1.80;;
16286;SDS011;8251;53.568;10.018;2023-12-20T12:35:23;11.77;;;1.80;;
16286;SDS011;8251;53.568;10.018;2023-12-20T12:37:50;4.63;;;1.50;;
16286;SDS011;8251;53.568;10.018;2023-12-20T12:40:17;5.23;;;1.20;;
16286;SDS011;8251;53.568;10.018;2023-12-20T12:42:45;11.30;;;2.03;;
16286;SDS011;8251;53.568;10.018;2023-12-20T12:45:12;13.57;;;1.90;;
16286;SDS011;8251;53.568;10.018;2023-12-20T12:47:41;10.20;;;1.80;;
16286;SDS011;8251;53.568;10.018;2023-12-20T12:50:08;14.13;;;1.80;;
16286;SDS011;8251;53.568;10.018;2023-12-20T12:52:35;11.13;;;1.80;;
16286;SDS011;8251;53.568;10.018;2023-12-20T12:55:02;9.90;;;2.57;;
16286;SDS011;8251;53.568;10.018;2023-12-20T12:57:30;11.33;;;1.53;;
16286;SDS011;8251;53.568;10.018;2023-12-20T12:59:57;12.40;;;1.57;;
16286;SDS011;8251;53.568;10.018;2023-12-20T13:02:24;11.67;;;1.57;;
16286;SDS011;8251;53.568;10.018;2023-12-20T13:04:52;8.43;;;1.37;;
16286;SDS011;8251;53.568;10.018;2023-12-20T13:07:29;12.83;;;1.60;;
16286;SDS011;8251;53.568;10.018;2023-12-20T13:10:04;16.27;;;1.63;;
16286;SDS011;8251;53.568;10.018;2023-12-20T13:12:32;10.63;;;1.67;;
16286;SDS011;8251;53.568;10.018;2023-12-20T13:15:00;8.97;;;1.37;;
16286;SDS011;8251;53.568;10.018;2023-12-20T13:17:28;7.63;;;1.60;;
16286;SDS011;8251;53.568;10.018;2023-12-20T13:19:57;6.63;;;2.20;;
16286;SDS011;8251;53.568;10.018;2023-12-20T13:22:24;10.07;;;1.87;;
16286;SDS011;8251;53.568;10.018;2023-12-20T13:24:51;12.30;;;1.67;;
16286;SDS011;8251;53.568;10.018;2023-12-20T13:27:18;13.60;;;2.10;;
16286;SDS011;8251;53.568;10.018;2023-12-20T13:29:46;9.00;;;1.67;;
16286;SDS011;8251;53.568;10.018;2023-12-20T13:32:12;8.00;;;1.57;;
16286;SDS011;8251;53.568;10.018;2023-12-20T13:34:39;13.40;;;2.87;;
16286;SDS011;8251;53.568;10.018;2023-12-20T13:37:08;19.13;;;2.83;;
16286;SDS011;8251;53.568;10.018;2023-12-20T13:39:34;8.40;;;1.77;;
16286;SDS011;8251;53.568;10.018;2023-12-20T13:42:01;11.47;;;1.87;;
16286;SDS011;8251;53.568;10.018;2023-12-20T13:44:28;12.70;;;2.40;;
16286;SDS011;8251;53.568;10.018;2023-12-20T13:46:56;11.33;;;2.57;;
16286;SDS011;8251;53.568;10.018;2023-12-20T13:49:23;10.07;;;1.80;;
16286;SDS011;8251;53.568;10.018;2023-12-20T13:51:50;12.97;;;2.23;;
16286;SDS011;8251;53.568;10.018;2023-12-20T13:54:21;16.83;;;2.57;;
16286;SDS011;8251;53.568;10.018;2023-12-20T13:56:48;7.20;;;2.13;;
16286;SDS011;8251;53.568;10.018;2023-12-20T13:59:14;14.37;;;2.90;;
16286;SDS011;8251;53.568;10.018;2023-12-20T14:01:41;13.50;;;2.80;;
16286;SDS011;8251;53.568;10.018;2023-12-20T14:04:08;17.67;;;2.97;;
16286;SDS011;8251;53.568;10.018;2023-12-20T14:06:36;12.73;;;2.23;;
16286;SDS011;8251;53.568;10.018;2023-12-20T14:09:03;14.87;;;2.43;;
16286;SDS011;8251;53.568;10.018;2023-12-20T14:11:32;22.03;;;3.50;;
16286;SDS011;8251;53.568;10.018;2023-12-20T14:13:59;12.93;;;2.93;;
16286;SDS011;8251;53.568;10.018;2023-12-20T14:16:26;13.07;;;4.33;;
16286;SDS011;8251;53.568;10.018;2023-12-20T14:18:53;24.80;;;2.67;;
16286;SDS011;8251;53.568;10.018;2023-12-20T14:21:22;15.23;;;3.13;;
16286;SDS011;8251;53.568;10.018;2023-12-20T14:23:49;15.80;;;2.40;;
16286;SDS011;8251;53.568;10.018;2023-12-20T14:26:17;18.93;;;4.47;;
16286;SDS011;8251;53.568;10.018;2023-12-20T14:28:45;17.80;;;2.97;;
16286;SDS011;8251;53.568;10.018;2023-12-20T14:31:14;11.63;;;2.97;;
16286;SDS011;8251;53.568;10.018;2023-12-20T14:33:41;15.37;;;2.53;;
16286;SDS011;8251;53.568;10.018;2023-12-20T14:36:08;10.33;;;2.53;;
16286;SDS011;8251;53.568;10.018;2023-12-20T14:38:35;11.57;;;2.53;;
16286;SDS011;8251;53.568;10.018;2023-12-20T14:41:02;13.47;;;2.33;;
16286;SDS011;8251;53.568;10.018;2023-12-20T14:43:33;11.73;;;2.60;;
16286;SDS011;8251;53.568;10.018;2023-12-20T14:46:01;12.23;;;2.30;;
16286;SDS011;8251;53.568;10.018;2023-12-20T14:48:28;12.30;;;2.37;;